sensor_id;sensor_type;location;lat;lon;timestamp;pressure;altitude;pressure_sealevel;temperature;humidity
6938;BME280;40040;42.706;23.372;2023-05-11T00:00:52;146553.94;;;9.65;100.00
6938;BME280;40040;42.706;23.372;2023-05-11T00:03:19;146542.81;;;9.61;100.00
6938;BME280;40040;42.706;23.372;2023-05-11T00:05:46;146545.31;;;9.62;100.00
6938;BME280;40040;42.706;23.372;2023-05-11T00:08:13;146535.44;;;9.58;100.00
6938;BME280;40040;42.706;23.372;2023-05-11T00:10:46;146523.13;;;9.53;100.00
6938;BME280;40040;42.706;23.372;2023-05-11T00:13:13;146518.19;;;9.51;100.00
6938;BME280;40040;42.706;23.372;2023-05-11T00:15:40;146505.84;;;9.46;100.00
6938;BME280;40040;42.706;23.372;2023-05-11T00:18:07;146499.66;;;9.43;100.00
6938;BME280;40040;42.706;23.372;2023-05-11T00:20:34;146499.66;;;9.43;100.00
6938;BME280;40040;42.706;23.372;2023-05-11T00:23:01;146497.22;;;9.42;100.00
6938;BME280;40040;42.706;23.372;2023-05-11T00:25:27;146489.84;;;9.39;100.00
6938;BME280;40040;42.706;23.372;2023-05-11T00:27:56;146494.78;;;9.41;100.00
6938;BME280;40040;42.706;23.372;2023-05-11T00:30:23;146483.66;;;9.37;100.00
6938;BME280;40040;42.706;23.372;2023-05-11T00:32:49;146476.28;;;9.34;100.00
6938;BME280;40040;42.706;23.372;2023-05-11T00:35:16;146444.22;;;9.21;100.00
6938;BME280;40040;42.706;23.372;2023-05-11T00:37:43;146465.19;;;9.29;100.00
6938;BME280;40040;42.706;23.372;2023-05-11T00:40:10;146441.75;;;9.20;100.00
6938;BME280;40040;42.706;23.372;2023-05-11T00:42:37;146444.22;;;9.21;100.00
6938;BME280;40040;42.706;23.372;2023-05-11T00:45:06;146444.22;;;9.21;100.00
6938;BME280;40040;42.706;23.372;2023-05-11T00:47:33;146431.91;;;9.16;100.00
6938;BME280;40040;42.706;23.372;2023-05-11T00:50:00;146397.38;;;9.01;100.00
6938;BME280;40040;42.706;23.372;2023-05-11T00:52:27;146441.75;;;9.20;100.00
6938;BME280;40040;42.706;23.372;2023-05-11T00:54:53;146438.06;;;9.18;100.00
6938;BME280;40040;42.706;23.372;2023-05-11T00:57:20;146436.84;;;9.18;100.00
6938;BME280;40040;42.706;23.372;2023-05-11T00:59:48;146433.13;;;9.16;100.00
6938;BME280;40040;42.706;23.372;2023-05-11T01:02:16;146429.44;;;9.15;100.00
6938;BME280;40040;42.706;23.372;2023-05-11T01:04:44;146430.69;;;9.15;100.00
6938;BME280;40040;42.706;23.372;2023-05-11T01:07:16;146420.81;;;9.11;100.00
6938;BME280;40040;42.706;23.372;2023-05-11T01:09:54;146422.06;;;9.12;100.00
6938;BME280;40040;42.706;23.372;2023-05-11T01:12:28;146412.19;;;9.07;100.00
6938;BME280;40040;42.706;23.372;2023-05-11T01:15:01;146412.19;;;9.07;100.00
6938;BME280;40040;42.706;23.372;2023-05-11T01:17:37;146409.75;;;9.06;100.00
6938;BME280;40040;42.706;23.372;2023-05-11T01:20:11;146362.88;;;8.87;100.00
6938;BME280;40040;42.706;23.372;2023-05-11T01:22:54;146399.88;;;9.02;100.00
6938;BME280;40040;42.706;23.372;2023-05-11T01:25:43;146394.94;;;9.00;100.00
6938;BME280;40040;42.706;23.372;2023-05-11T01:28:28;146394.94;;;9.00;100.00
6938;BME280;40040;42.706;23.372;2023-05-11T01:31:06;146383.88;;;8.96;100.00
6938;BME280;40040;42.706;23.372;2023-05-11T01:33:36;146387.56;;;8.97;100.00
6938;BME280;40040;42.706;23.372;2023-05-11T01:36:08;146382.63;;;8.95;100.00
6938;BME280;40040;42.706;23.372;2023-05-11T01:38:39;146380.13;;;8.94;100.00
6938;BME280;40040;42.706;23.372;2023-05-11T01:41:11;146388.75;;;8.98;100.00
6938;BME280;40040;42.706;23.372;2023-05-11T01:43:40;146390.00;;;8.98;100.00
6938;BME280;40040;42.706;23.372;2023-05-11T01:46:11;146382.63;;;8.95;100.00
6938;BME280;40040;42.706;23.372;2023-05-11T01:48:43;146374.00;;;8.92;100.00
6938;BME280;40040;42.706;23.372;2023-05-11T01:51:12;146371.50;;;8.91;100.00
6938;BME280;40040;42.706;23.372;2023-05-11T01:53:41;146367.81;;;8.89;100.00
6938;BME280;40040;42.706;23.372;2023-05-11T01:56:10;146372.75;;;8.91;100.00
6938;BME280;40040;42.706;23.372;2023-05-11T01:58:38;146365.38;;;8.88;100.00
6938;BME280;40040;42.706;23.372;2023-05-11T02:01:07;146362.88;;;8.87;100.00
6938;BME280;40040;42.706;23.372;2023-05-11T02:03:36;146365.38;;;8.88;100.00
6938;BME280;40040;42.706;23.372;2023-05-11T02:06:05;146356.75;;;8.85;100.00
6938;BME280;40040;42.706;23.372;2023-05-11T02:08:34;146340.75;;;8.78;100.00
6938;BME280;40040;42.706;23.372;2023-05-11T02:11:03;146348.13;;;8.81;100.00
6938;BME280;40040;42.706;23.372;2023-05-11T02:13:33;146301.31;;;8.62;100.00
6938;BME280;40040;42.706;23.372;2023-05-11T02:16:01;146354.25;;;8.84;100.00
6938;BME280;40040;42.706;23.372;2023-05-11T02:18:30;146353.06;;;8.83;100.00
6938;BME280;40040;42.706;23.372;2023-05-11T02:21:00;146353.06;;;8.83;100.00
6938;BME280;40040;42.706;23.372;2023-05-11T02:23:30;146341.94;;;8.79;100.00
6938;BME280;40040;42.706;23.372;2023-05-11T02:25:58;146330.88;;;8.74;100.00
6938;BME280;40040;42.706;23.372;2023-05-11T02:28:25;146323.50;;;8.71;100.00
6938;BME280;40040;42.706;23.372;2023-05-11T02:30:54;146328.44;;;8.73;100.00
6938;BME280;40040;42.706;23.372;2023-05-11T02:33:25;146322.25;;;8.71;100.00
6938;BME280;40040;42.706;23.372;2023-05-11T02:35:54;146327.19;;;8.73;100.00
6938;BME280;40040;42.706;23.372;2023-05-11T02:38:26;146321.00;;;8.70;100.00
6938;BME280;40040;42.706;23.372;2023-05-11T02:40:59;146323.50;;;8.71;100.00
6938;BME280;40040;42.706;23.372;2023-05-11T02:43:31;146313.63;;;8.67;100.00
6938;BME280;40040;42.706;23.372;2023-05-11T02:46:02;146316.06;;;8.68;100.00
6938;BME280;40040;42.706;23.372;2023-05-11T02:48:41;146321.00;;;8.70;100.00
6938;BME280;40040;42.706;23.372;2023-05-11T02:51:11;146303.75;;;8.63;100.00
6938;BME280;40040;42.706;23.372;2023-05-11T02:53:41;146305.00;;;8.64;100.00
6938;BME280;40040;42.706;23.372;2023-05-11T02:56:09;146287.75;;;8.57;100.00
6938;BME280;40040;42.706;23.372;2023-05-11T02:58:37;146265.56;;;8.48;100.00
6938;BME280;40040;42.706;23.372;2023-05-11T03:01:06;146285.31;;;8.56;100.00
6938;BME280;40040;42.706;23.372;2023-05-11T03:03:33;146286.50;;;8.56;100.00
6938;BME280;40040;42.706;23.372;2023-05-11T03:06:00;146277.88;;;8.53;100.00
6938;BME280;40040;42.706;23.372;2023-05-11T03:08:26;146272.94;;;8.51;100.00
6938;BME280;40040;42.706;23.372;2023-05-11T03:10:56;146279.13;;;8.53;100.00
6938;BME280;40040;42.706;23.372;2023-05-11T03:13:24;146265.56;;;8.48;100.00
6938;BME280;40040;42.706;23.372;2023-05-11T03:15:53;146247.13;;;8.40;100.00
6938;BME280;40040;42.706;23.372;2023-05-11T03:18:21;146249.56;;;8.41;100.00
6938;BME280;40040;42.706;23.372;2023-05-11T03:20:49;146253.25;;;8.43;100.00
6938;BME280;40040;42.706;23.372;2023-05-11T03:23:16;146253.25;;;8.43;100.00
6938;BME280;40040;42.706;23.372;2023-05-11T03:25:44;146247.13;;;8.40;100.00
6938;BME280;40040;42.706;23.372;2023-05-11T03:28:13;146252.03;;;8.42;100.00
6938;BME280;40040;42.706;23.372;2023-05-11T03:30:44;146238.50;;;8.37;100.00
6938;BME280;40040;42.706;23.372;2023-05-11T03:33:11;146244.66;;;8.39;100.00
6938;BME280;40040;42.706;23.372;2023-05-11T03:35:39;146244.66;;;8.39;100.00
6938;BME280;40040;42.706;23.372;2023-05-11T03:38:10;146245.88;;;8.40;100.00
6938;BME280;40040;42.706;23.372;2023-05-11T03:40:39;146248.34;;;8.41;100.00
6938;BME280;40040;42.706;23.372;2023-05-11T03:43:10;146240.97;;;8.38;100.00
6938;BME280;40040;42.706;23.372;2023-05-11T03:45:40;146249.56;;;8.41;100.00
6938;BME280;40040;42.706;23.372;2023-05-11T03:48:09;146220.03;;;8.29;100.00
6938;BME280;40040;42.706;23.372;2023-05-11T03:50:37;146242.19;;;8.38;100.00
6938;BME280;40040;42.706;23.372;2023-05-11T03:53:04;146242.19;;;8.38;100.00
6938;BME280;40040;42.706;23.372;2023-05-11T03:55:31;146242.19;;;8.38;100.00
6938;BME280;40040;42.706;23.372;2023-05-11T03:57:58;146245.88;;;8.40;100.00
6938;BME280;40040;42.706;23.372;2023-05-11T04:00:25;146242.19;;;8.38;100.00
6938;BME280;40040;42.706;23.372;2023-05-11T04:02:54;146165.81;;;8.07;100.00
6938;BME280;40040;42.706;23.372;2023-05-11T04:05:20;146201.50;;;8.22;100.00
6938;BME280;40040;42.706;23.372;2023-05-11T04:07:49;146234.78;;;8.35;100.00
6938;BME280;40040;42.706;23.372;2023-05-11T04:10:16;146234.78;;;8.35;100.00
6938;BME280;40040;42.706;23.372;2023-05-11T04:12:43;146244.66;;;8.39;100.00
6938;BME280;40040;42.706;23.372;2023-05-11T04:15:10;146244.66;;;8.39;100.00
6938;BME280;40040;42.706;23.372;2023-05-11T04:17:37;146243.41;;;8.39;100.00
6938;BME280;40040;42.706;23.372;2023-05-11T04:20:06;146243.41;;;8.39;100.00
6938;BME280;40040;42.706;23.372;2023-05-11T04:22:33;146247.13;;;8.40;100.00
6938;BME280;40040;42.706;23.372;2023-05-11T04:25:00;146237.25;;;8.36;100.00
6938;BME280;40040;42.706;23.372;2023-05-11T04:27:27;146237.25;;;8.36;100.00
6938;BME280;40040;42.706;23.372;2023-05-11T04:29:54;146250.81;;;8.42;100.00
6938;BME280;40040;42.706;23.372;2023-05-11T04:32:20;146245.88;;;8.40;100.00
6938;BME280;40040;42.706;23.372;2023-05-11T04:34:48;146210.16;;;8.25;100.00
6938;BME280;40040;42.706;23.372;2023-05-11T04:37:16;146247.13;;;8.40;100.00
6938;BME280;40040;42.706;23.372;2023-05-11T04:39:42;146239.72;;;8.37;100.00
6938;BME280;40040;42.706;23.372;2023-05-11T04:42:09;146243.41;;;8.39;100.00
6938;BME280;40040;42.706;23.372;2023-05-11T04:44:36;146249.56;;;8.41;100.00
6938;BME280;40040;42.706;23.372;2023-05-11T04:47:03;146239.72;;;8.37;100.00
6938;BME280;40040;42.706;23.372;2023-05-11T04:49:30;146248.34;;;8.41;100.00
6938;BME280;40040;42.706;23.372;2023-05-11T04:51:57;146244.66;;;8.39;100.00
6938;BME280;40040;42.706;23.372;2023-05-11T04:54:25;146240.97;;;8.38;100.00
6938;BME280;40040;42.706;23.372;2023-05-11T04:56:52;146243.41;;;8.39;100.00
6938;BME280;40040;42.706;23.372;2023-05-11T04:59:20;146228.66;;;8.33;100.00
6938;BME280;40040;42.706;23.372;2023-05-11T05:01:46;146247.13;;;8.40;100.00
6938;BME280;40040;42.706;23.372;2023-05-11T05:04:13;146247.13;;;8.40;100.00
6938;BME280;40040;42.706;23.372;2023-05-11T05:06:40;146248.34;;;8.41;100.00
6938;BME280;40040;42.706;23.372;2023-05-11T05:09:07;146252.03;;;8.42;100.00
6938;BME280;40040;42.706;23.372;2023-05-11T05:11:36;146265.56;;;8.48;100.00
6938;BME280;40040;42.706;23.372;2023-05-11T05:14:03;146269.25;;;8.49;100.00
6938;BME280;40040;42.706;23.372;2023-05-11T05:16:30;146281.56;;;8.54;100.00
6938;BME280;40040;42.706;23.372;2023-05-11T05:18:57;146242.19;;;8.38;100.00
6938;BME280;40040;42.706;23.372;2023-05-11T05:21:24;146286.50;;;8.56;100.00
6938;BME280;40040;42.706;23.372;2023-05-11T05:23:51;146289.00;;;8.57;100.00
6938;BME280;40040;42.706;23.372;2023-05-11T05:26:17;146297.63;;;8.61;100.00
6938;BME280;40040;42.706;23.372;2023-05-11T05:28:46;146308.69;;;8.65;100.00
6938;BME280;40040;42.706;23.372;2023-05-11T05:31:12;146311.19;;;8.66;100.00
6938;BME280;40040;42.706;23.372;2023-05-11T05:33:39;146298.81;;;8.61;100.00
6938;BME280;40040;42.706;23.372;2023-05-11T05:36:07;146293.94;;;8.59;100.00
6938;BME280;40040;42.706;23.372;2023-05-11T05:38:34;146189.19;;;8.17;100.00
6938;BME280;40040;42.706;23.372;2023-05-11T05:41:00;146249.56;;;8.41;100.00
6938;BME280;40040;42.706;23.372;2023-05-11T05:43:27;146297.63;;;8.61;100.00
6938;BME280;40040;42.706;23.372;2023-05-11T05:45:55;146295.13;;;8.60;100.00
6938;BME280;40040;42.706;23.372;2023-05-11T05:48:22;146311.19;;;8.66;100.00
6938;BME280;40040;42.706;23.372;2023-05-11T05:50:49;146316.06;;;8.68;100.00
6938;BME280;40040;42.706;23.372;2023-05-11T05:53:16;146313.63;;;8.67;100.00
6938;BME280;40040;42.706;23.372;2023-05-11T05:55:42;146301.31;;;8.62;100.00
6938;BME280;40040;42.706;23.372;2023-05-11T05:58:09;146327.19;;;8.73;100.00
6938;BME280;40040;42.706;23.372;2023-05-11T06:00:36;146340.75;;;8.78;100.00
6938;BME280;40040;42.706;23.372;2023-05-11T06:03:04;146355.50;;;8.84;100.00
6938;BME280;40040;42.706;23.372;2023-05-11T06:05:31;146367.81;;;8.89;100.00
6938;BME280;40040;42.706;23.372;2023-05-11T06:07:58;146365.38;;;8.88;100.00
6938;BME280;40040;42.706;23.372;2023-05-11T06:10:25;146355.50;;;8.84;100.00
6938;BME280;40040;42.706;23.372;2023-05-11T06:12:52;146332.13;;;8.75;100.00
6938;BME280;40040;42.706;23.372;2023-05-11T06:15:19;146333.31;;;8.75;100.00
6938;BME280;40040;42.706;23.372;2023-05-11T06:17:46;146349.38;;;8.82;100.00
6938;BME280;40040;42.706;23.372;2023-05-11T06:20:14;146338.25;;;8.77;100.00
6938;BME280;40040;42.706;23.372;2023-05-11T06:22:40;146335.81;;;8.76;100.00
6938;BME280;40040;42.706;23.372;2023-05-11T06:25:07;146345.63;;;8.80;100.00
6938;BME280;40040;42.706;23.372;2023-05-11T06:27:34;146348.13;;;8.81;100.00
6938;BME280;40040;42.706;23.372;2023-05-11T06:30:01;146353.06;;;8.83;100.00
6938;BME280;40040;42.706;23.372;2023-05-11T06:32:28;146348.13;;;8.81;100.00
6938;BME280;40040;42.706;23.372;2023-05-11T06:34:55;146356.75;;;8.85;100.00
6938;BME280;40040;42.706;23.372;2023-05-11T06:37:23;146378.94;;;8.94;100.00
6938;BME280;40040;42.706;23.372;2023-05-11T06:39:50;146394.94;;;9.00;100.00
6938;BME280;40040;42.706;23.372;2023-05-11T06:42:17;146391.25;;;8.99;100.00
6938;BME280;40040;42.706;23.372;2023-05-11T06:44:43;146392.50;;;8.99;100.00
6938;BME280;40040;42.706;23.372;2023-05-11T06:47:10;146387.56;;;8.97;100.00
6938;BME280;40040;42.706;23.372;2023-05-11T06:49:37;146396.19;;;9.01;100.00
6938;BME280;40040;42.706;23.372;2023-05-11T06:52:04;146407.25;;;9.05;100.00
6938;BME280;40040;42.706;23.372;2023-05-11T06:54:33;146404.81;;;9.04;100.00
6938;BME280;40040;42.706;23.372;2023-05-11T06:56:59;146423.25;;;9.12;100.00
6938;BME280;40040;42.706;23.372;2023-05-11T06:59:27;146426.94;;;9.13;100.00
6938;BME280;40040;42.706;23.372;2023-05-11T07:01:54;146387.56;;;8.97;100.00
6938;BME280;40040;42.706;23.372;2023-05-11T07:04:21;146439.31;;;9.19;100.00
6938;BME280;40040;42.706;23.372;2023-05-11T07:06:48;146462.72;;;9.28;100.00
6938;BME280;40040;42.706;23.372;2023-05-11T07:09:15;146478.72;;;9.35;100.00
6938;BME280;40040;42.706;23.372;2023-05-11T07:11:43;146503.41;;;9.45;100.00
6938;BME280;40040;42.706;23.372;2023-05-11T07:14:10;146503.41;;;9.45;100.00
6938;BME280;40040;42.706;23.372;2023-05-11T07:16:37;146546.56;;;9.62;100.00
6938;BME280;40040;42.706;23.372;2023-05-11T07:19:04;146576.16;;;9.74;100.00
6938;BME280;40040;42.706;23.372;2023-05-11T07:21:33;146562.56;;;9.69;100.00
6938;BME280;40040;42.706;23.372;2023-05-11T07:24:00;146609.44;;;9.88;100.00
6938;BME280;40040;42.706;23.372;2023-05-11T07:26:27;146639.00;;;10.00;100.00
6938;BME280;40040;42.706;23.372;2023-05-11T07:28:56;146655.03;;;10.06;100.00
6938;BME280;40040;42.706;23.372;2023-05-11T07:31:23;146650.09;;;10.04;100.00
6938;BME280;40040;42.706;23.372;2023-05-11T07:33:49;146664.97;;;10.10;100.00
6938;BME280;40040;42.706;23.372;2023-05-11T07:36:17;146677.28;;;10.15;100.00
6938;BME280;40040;42.706;23.372;2023-05-11T07:38:44;146687.19;;;10.19;100.00
6938;BME280;40040;42.706;23.372;2023-05-11T07:41:11;146708.13;;;10.28;100.00
6938;BME280;40040;42.706;23.372;2023-05-11T07:43:38;146755.00;;;10.47;100.00
6938;BME280;40040;42.706;23.372;2023-05-11T07:46:07;146777.22;;;10.56;100.00
6938;BME280;40040;42.706;23.372;2023-05-11T07:48:34;146838.88;;;10.81;100.00
6938;BME280;40040;42.706;23.372;2023-05-11T07:51:01;146863.56;;;10.91;100.00
6938;BME280;40040;42.706;23.372;2023-05-11T07:53:27;146866.06;;;10.92;100.00
6938;BME280;40040;42.706;23.372;2023-05-11T07:55:54;146885.78;;;11.00;100.00
6938;BME280;40040;42.706;23.372;2023-05-11T07:58:23;146883.34;;;10.99;100.00
6938;BME280;40040;42.706;23.372;2023-05-11T08:00:50;146898.13;;;11.05;100.00
6938;BME280;40040;42.706;23.372;2023-05-11T08:03:18;146911.69;;;11.11;100.00
6938;BME280;40040;42.706;23.372;2023-05-11T08:05:45;146896.91;;;11.05;100.00
6938;BME280;40040;42.706;23.372;2023-05-11T08:08:12;146930.22;;;11.18;100.00
6938;BME280;40040;42.706;23.372;2023-05-11T08:10:40;146941.31;;;11.23;100.00
6938;BME280;40040;42.706;23.372;2023-05-11T08:13:07;146947.50;;;11.25;100.00
6938;BME280;40040;42.706;23.372;2023-05-11T08:15:34;146959.84;;;11.30;100.00
6938;BME280;40040;42.706;23.372;2023-05-11T08:18:01;146987.03;;;11.42;100.00
6938;BME280;40040;42.706;23.372;2023-05-11T08:20:29;147026.50;;;11.58;100.00
6938;BME280;40040;42.706;23.372;2023-05-11T08:22:56;147003.06;;;11.48;100.00
6938;BME280;40040;42.706;23.372;2023-05-11T08:25:23;147024.06;;;11.57;100.00
6938;BME280;40040;42.706;23.372;2023-05-11T08:27:50;147032.69;;;11.60;100.00
6938;BME280;40040;42.706;23.372;2023-05-11T08:30:17;147004.31;;;11.49;100.00
6938;BME280;40040;42.706;23.372;2023-05-11T08:32:44;147032.69;;;11.60;100.00
6938;BME280;40040;42.706;23.372;2023-05-11T08:35:11;147083.34;;;11.81;100.00
6938;BME280;40040;42.706;23.372;2023-05-11T08:37:40;147110.53;;;11.92;100.00
6938;BME280;40040;42.706;23.372;2023-05-11T08:40:09;147105.59;;;11.90;100.00
6938;BME280;40040;42.706;23.372;2023-05-11T08:42:39;147115.50;;;11.94;100.00
6938;BME280;40040;42.706;23.372;2023-05-11T08:45:07;147075.97;;;11.78;100.00
6938;BME280;40040;42.706;23.372;2023-05-11T08:47:36;147038.88;;;11.63;100.00
6938;BME280;40040;42.706;23.372;2023-05-11T08:50:03;147101.91;;;11.88;100.00
6938;BME280;40040;42.706;23.372;2023-05-11T08:52:31;147108.06;;;11.91;100.00
6938;BME280;40040;42.706;23.372;2023-05-11T08:55:00;147135.22;;;12.02;100.00
6938;BME280;40040;42.706;23.372;2023-05-11T08:57:29;147083.34;;;11.81;100.00
6938;BME280;40040;42.706;23.372;2023-05-11T08:59:57;147021.59;;;11.56;100.00
6938;BME280;40040;42.706;23.372;2023-05-11T09:02:25;147073.50;;;11.77;100.00
6938;BME280;40040;42.706;23.372;2023-05-11T09:04:53;147078.41;;;11.79;100.00
6938;BME280;40040;42.706;23.372;2023-05-11T09:07:20;147126.59;;;11.98;100.00
6938;BME280;40040;42.706;23.372;2023-05-11T09:09:48;147088.31;;;11.83;100.00
6938;BME280;40040;42.706;23.372;2023-05-11T09:12:16;147155.03;;;12.10;100.00
6938;BME280;40040;42.706;23.372;2023-05-11T09:14:43;147177.22;;;12.19;100.00
6938;BME280;40040;42.706;23.372;2023-05-11T09:17:11;147132.78;;;12.01;100.00
6938;BME280;40040;42.706;23.372;2023-05-11T09:19:56;147108.06;;;11.91;100.00
6938;BME280;40040;42.706;23.372;2023-05-11T09:22:23;147127.84;;;11.99;100.00
6938;BME280;40040;42.706;23.372;2023-05-11T09:24:50;147166.13;;;12.14;100.00
6938;BME280;40040;42.706;23.372;2023-05-11T09:27:18;147120.44;;;11.96;100.00
6938;BME280;40040;42.706;23.372;2023-05-11T09:29:45;147216.75;;;12.35;100.00
6938;BME280;40040;42.706;23.372;2023-05-11T09:32:12;147189.56;;;12.24;100.00
6938;BME280;40040;42.706;23.372;2023-05-11T09:34:41;147172.28;;;12.17;100.00
6938;BME280;40040;42.706;23.372;2023-05-11T09:37:15;147209.38;;;12.32;100.00
6938;BME280;40040;42.706;23.372;2023-05-11T09:39:42;147209.38;;;12.32;100.00
6938;BME280;40040;42.706;23.372;2023-05-11T09:42:18;147183.41;;;12.21;100.00
6938;BME280;40040;42.706;23.372;2023-05-11T09:44:45;147241.47;;;12.45;100.00
6938;BME280;40040;42.706;23.372;2023-05-11T09:47:14;147288.41;;;12.64;100.00
6938;BME280;40040;42.706;23.372;2023-05-11T09:49:41;147315.63;;;12.75;100.00
6938;BME280;40040;42.706;23.372;2023-05-11T09:52:09;147318.06;;;12.76;100.00
6938;BME280;40040;42.706;23.372;2023-05-11T09:54:41;147345.28;;;12.87;100.00
6938;BME280;40040;42.706;23.372;2023-05-11T09:57:23;147352.69;;;12.90;100.00
6938;BME280;40040;42.706;23.372;2023-05-11T09:59:51;147229.13;;;12.40;100.00
6938;BME280;40040;42.706;23.372;2023-05-11T10:02:20;147323.03;;;12.78;100.00
6938;BME280;40040;42.706;23.372;2023-05-11T10:04:48;147352.69;;;12.90;100.00
6938;BME280;40040;42.706;23.372;2023-05-11T10:07:26;147426.91;;;13.20;100.00
6938;BME280;40040;42.706;23.372;2023-05-11T10:09:54;147509.75;;;13.54;100.00
6938;BME280;40040;42.706;23.372;2023-05-11T10:12:24;147519.66;;;13.58;100.00
6938;BME280;40040;42.706;23.372;2023-05-11T10:14:54;147533.22;;;13.64;100.00
6938;BME280;40040;42.706;23.372;2023-05-11T10:17:24;147540.69;;;13.67;100.00
6938;BME280;40040;42.706;23.372;2023-05-11T10:19:51;147466.47;;;13.36;100.00
6938;BME280;40040;42.706;23.372;2023-05-11T10:22:20;147465.22;;;13.36;100.00
6938;BME280;40040;42.706;23.372;2023-05-11T10:24:49;147461.53;;;13.34;100.00
6938;BME280;40040;42.706;23.372;2023-05-11T10:27:16;147472.63;;;13.39;100.00
6938;BME280;40040;42.706;23.372;2023-05-11T10:29:45;147440.50;;;13.26;100.00
6938;BME280;40040;42.706;23.372;2023-05-11T10:32:16;147444.22;;;13.27;100.00
6938;BME280;40040;42.706;23.372;2023-05-11T10:34:44;147456.56;;;13.32;100.00
6938;BME280;40040;42.706;23.372;2023-05-11T10:37:12;147425.66;;;13.20;100.00
6938;BME280;40040;42.706;23.372;2023-05-11T10:39:39;147412.09;;;13.14;100.00
6938;BME280;40040;42.706;23.372;2023-05-11T10:42:17;147444.22;;;13.27;100.00
6938;BME280;40040;42.706;23.372;2023-05-11T10:45:11;147461.53;;;13.34;100.00
6938;BME280;40040;42.706;23.372;2023-05-11T10:48:02;147481.28;;;13.42;100.00
6938;BME280;40040;42.706;23.372;2023-05-11T10:50:50;147548.09;;;13.70;100.00
6938;BME280;40040;42.706;23.372;2023-05-11T10:53:35;147606.19;;;13.93;100.00
6938;BME280;40040;42.706;23.372;2023-05-11T10:56:21;147569.13;;;13.78;100.00
6938;BME280;40040;42.706;23.372;2023-05-11T10:59:20;147548.09;;;13.70;100.00
6938;BME280;40040;42.706;23.372;2023-05-11T11:01:53;147503.56;;;13.51;100.00
6938;BME280;40040;42.706;23.372;2023-05-11T11:04:23;147522.13;;;13.59;100.00
6938;BME280;40040;42.706;23.372;2023-05-11T11:07:03;147519.66;;;13.58;100.00
6938;BME280;40040;42.706;23.372;2023-05-11T11:09:52;147562.91;;;13.76;100.00
6938;BME280;40040;42.706;23.372;2023-05-11T11:12:20;147612.41;;;13.96;100.00
6938;BME280;40040;42.706;23.372;2023-05-11T11:14:55;147605.00;;;13.93;100.00
6938;BME280;40040;42.706;23.372;2023-05-11T11:17:26;147536.94;;;13.65;100.00
6938;BME280;40040;42.706;23.372;2023-05-11T11:19:56;147535.72;;;13.65;100.00
6938;BME280;40040;42.706;23.372;2023-05-11T11:22:42;147535.72;;;13.65;100.00
6938;BME280;40040;42.706;23.372;2023-05-11T11:25:11;147525.81;;;13.61;100.00
6938;BME280;40040;42.706;23.372;2023-05-11T11:27:56;147533.22;;;13.64;100.00
6938;BME280;40040;42.706;23.372;2023-05-11T11:30:25;147545.59;;;13.69;100.00
6938;BME280;40040;42.706;23.372;2023-05-11T11:33:29;147548.09;;;13.70;100.00
6938;BME280;40040;42.706;23.372;2023-05-11T11:35:56;147565.41;;;13.77;100.00
6938;BME280;40040;42.706;23.372;2023-05-11T11:38:23;147600.03;;;13.91;100.00
6938;BME280;40040;42.706;23.372;2023-05-11T11:40:50;147659.41;;;14.15;100.00
6938;BME280;40040;42.706;23.372;2023-05-11T11:43:19;147681.69;;;14.24;100.00
6938;BME280;40040;42.706;23.372;2023-05-11T11:45:50;147716.38;;;14.38;100.00
6938;BME280;40040;42.706;23.372;2023-05-11T11:48:23;147640.84;;;14.07;100.00
6938;BME280;40040;42.706;23.372;2023-05-11T11:51:04;147682.91;;;14.24;100.00
6938;BME280;40040;42.706;23.372;2023-05-11T11:54:04;147696.56;;;14.30;100.00
6938;BME280;40040;42.706;23.372;2023-05-11T11:56:41;147694.09;;;14.29;100.00
6938;BME280;40040;42.706;23.372;2023-05-11T11:59:15;147583.97;;;13.84;100.00
6938;BME280;40040;42.706;23.372;2023-05-11T12:01:43;147626.03;;;14.01;100.00
6938;BME280;40040;42.706;23.372;2023-05-11T12:04:44;147655.72;;;14.13;100.00
6938;BME280;40040;42.706;23.372;2023-05-11T12:07:18;147592.63;;;13.88;100.00
6938;BME280;40040;42.706;23.372;2023-05-11T12:09:45;147530.78;;;13.63;100.00
6938;BME280;40040;42.706;23.372;2023-05-11T12:12:16;147535.72;;;13.65;100.00
6938;BME280;40040;42.706;23.372;2023-05-11T12:14:43;147506.06;;;13.52;100.00
6938;BME280;40040;42.706;23.372;2023-05-11T12:17:14;147525.81;;;13.61;100.00
6938;BME280;40040;42.706;23.372;2023-05-11T12:19:43;147502.34;;;13.51;100.00
6938;BME280;40040;42.706;23.372;2023-05-11T12:22:11;147530.78;;;13.63;100.00
6938;BME280;40040;42.706;23.372;2023-05-11T12:24:39;147515.91;;;13.56;100.00
6938;BME280;40040;42.706;23.372;2023-05-11T12:27:06;147512.22;;;13.55;100.00
6938;BME280;40040;42.706;23.372;2023-05-11T12:29:33;147528.28;;;13.62;100.00
6938;BME280;40040;42.706;23.372;2023-05-11T12:32:00;147567.88;;;13.78;100.00
6938;BME280;40040;42.706;23.372;2023-05-11T12:34:27;147525.81;;;13.61;100.00
6938;BME280;40040;42.706;23.372;2023-05-11T12:36:55;147497.41;;;13.49;100.00
6938;BME280;40040;42.706;23.372;2023-05-11T12:39:25;147538.19;;;13.66;100.00
6938;BME280;40040;42.706;23.372;2023-05-11T12:41:54;147611.16;;;13.95;100.00
6938;BME280;40040;42.706;23.372;2023-05-11T12:44:22;147577.78;;;13.82;100.00
6938;BME280;40040;42.706;23.372;2023-05-11T12:46:49;147609.91;;;13.95;100.00
6938;BME280;40040;42.706;23.372;2023-05-11T12:49:17;147602.50;;;13.92;100.00
6938;BME280;40040;42.706;23.372;2023-05-11T12:51:46;147587.69;;;13.86;100.00
6938;BME280;40040;42.706;23.372;2023-05-11T12:54:28;147613.66;;;13.96;100.00
6938;BME280;40040;42.706;23.372;2023-05-11T12:56:56;147590.13;;;13.87;100.00